sensor_id;sensor_type;location;lat;lon;timestamp;P1;durP1;ratioP1;P2;durP2;ratioP2
17259;SDS011;8746;49.230;9.220;2022-09-09T00:04:32;0.27;;;0.27;;
17259;SDS011;8746;49.230;9.220;2022-09-09T00:09:31;0.50;;;0.50;;
17259;SDS011;8746;49.230;9.220;2022-09-09T00:12:11;0.50;;;0.50;;
17259;SDS011;8746;49.230;9.220;2022-09-09T00:17:09;0.47;;;0.47;;
17259;SDS011;8746;49.230;9.220;2022-09-09T00:22:22;0.57;;;0.57;;
17259;SDS011;8746;49.230;9.220;2022-09-09T00:24:53;0.23;;;0.23;;
17259;SDS011;8746;49.230;9.220;2022-09-09T00:32:48;0.27;;;0.27;;
17259;SDS011;8746;49.230;9.220;2022-09-09T00:35:22;0.43;;;0.43;;
17259;SDS011;8746;49.230;9.220;2022-09-09T00:37:52;0.50;;;0.50;;
17259;SDS011;8746;49.230;9.220;2022-09-09T00:40:24;0.30;;;0.30;;
17259;SDS011;8746;49.230;9.220;2022-09-09T00:57:31;0.47;;;0.47;;
17259;SDS011;8746;49.230;9.220;2022-09-09T01:00:16;0.40;;;0.40;;
17259;SDS011;8746;49.230;9.220;2022-09-09T01:05:49;0.40;;;0.40;;
17259;SDS011;8746;49.230;9.220;2022-09-09T01:11:38;0.30;;;0.30;;
17259;SDS011;8746;49.230;9.220;2022-09-09T01:14:20;0.70;;;0.60;;
17259;SDS011;8746;49.230;9.220;2022-09-09T01:16:56;1.23;;;0.40;;
17259;SDS011;8746;49.230;9.220;2022-09-09T01:22:12;0.40;;;0.40;;
17259;SDS011;8746;49.230;9.220;2022-09-09T01:24:54;0.50;;;0.50;;
17259;SDS011;8746;49.230;9.220;2022-09-09T01:27:20;0.33;;;0.33;;
17259;SDS011;8746;49.230;9.220;2022-09-09T01:29:48;0.33;;;0.33;;
17259;SDS011;8746;49.230;9.220;2022-09-09T01:37:56;0.47;;;0.47;;
17259;SDS011;8746;49.230;9.220;2022-09-09T01:40:22;0.73;;;0.70;;
17259;SDS011;8746;49.230;9.220;2022-09-09T01:42:48;0.30;;;0.30;;
17259;SDS011;8746;49.230;9.220;2022-09-09T01:45:14;0.60;;;0.60;;
17259;SDS011;8746;49.230;9.220;2022-09-09T01:47:39;0.53;;;0.50;;
17259;SDS011;8746;49.230;9.220;2022-09-09T01:50:06;0.73;;;0.43;;
17259;SDS011;8746;49.230;9.220;2022-09-09T01:52:36;0.50;;;0.50;;
17259;SDS011;8746;49.230;9.220;2022-09-09T01:55:02;0.50;;;0.50;;
17259;SDS011;8746;49.230;9.220;2022-09-09T01:57:31;0.40;;;0.40;;
17259;SDS011;8746;49.230;9.220;2022-09-09T02:10:11;0.40;;;0.40;;
17259;SDS011;8746;49.230;9.220;2022-09-09T02:13:07;0.50;;;0.50;;
17259;SDS011;8746;49.230;9.220;2022-09-09T02:18:30;0.60;;;0.60;;
17259;SDS011;8746;49.230;9.220;2022-09-09T02:21:11;0.30;;;0.30;;
17259;SDS011;8746;49.230;9.220;2022-09-09T02:23:39;0.33;;;0.33;;
17259;SDS011;8746;49.230;9.220;2022-09-09T02:26:07;0.40;;;0.40;;
17259;SDS011;8746;49.230;9.220;2022-09-09T02:28:36;0.90;;;0.43;;
17259;SDS011;8746;49.230;9.220;2022-09-09T02:31:04;0.33;;;0.33;;
17259;SDS011;8746;49.230;9.220;2022-09-09T02:33:33;0.50;;;0.50;;
17259;SDS011;8746;49.230;9.220;2022-09-09T02:36:04;0.43;;;0.43;;
17259;SDS011;8746;49.230;9.220;2022-09-09T02:38:35;0.60;;;0.47;;
17259;SDS011;8746;49.230;9.220;2022-09-09T02:41:05;0.30;;;0.30;;
17259;SDS011;8746;49.230;9.220;2022-09-09T02:43:32;0.40;;;0.40;;
17259;SDS011;8746;49.230;9.220;2022-09-09T02:46:03;2.20;;;0.77;;
17259;SDS011;8746;49.230;9.220;2022-09-09T02:48:44;0.30;;;0.30;;
17259;SDS011;8746;49.230;9.220;2022-09-09T02:51:32;0.50;;;0.50;;
17259;SDS011;8746;49.230;9.220;2022-09-09T02:54:16;0.43;;;0.40;;
17259;SDS011;8746;49.230;9.220;2022-09-09T02:56:50;0.50;;;0.50;;
17259;SDS011;8746;49.230;9.220;2022-09-09T02:59:19;1.20;;;0.47;;
17259;SDS011;8746;49.230;9.220;2022-09-09T03:01:45;0.60;;;0.60;;
17259;SDS011;8746;49.230;9.220;2022-09-09T03:04:11;0.30;;;0.30;;
17259;SDS011;8746;49.230;9.220;2022-09-09T03:06:37;2.10;;;0.33;;
17259;SDS011;8746;49.230;9.220;2022-09-09T03:09:02;0.43;;;0.43;;
17259;SDS011;8746;49.230;9.220;2022-09-09T03:11:28;1.73;;;0.50;;
17259;SDS011;8746;49.230;9.220;2022-09-09T03:13:53;0.70;;;0.50;;
17259;SDS011;8746;49.230;9.220;2022-09-09T03:16:21;0.33;;;0.33;;
17259;SDS011;8746;49.230;9.220;2022-09-09T03:18:47;0.83;;;0.50;;
17259;SDS011;8746;49.230;9.220;2022-09-09T03:21:12;0.30;;;0.30;;
17259;SDS011;8746;49.230;9.220;2022-09-09T03:23:38;0.53;;;0.53;;
17259;SDS011;8746;49.230;9.220;2022-09-09T03:26:04;0.40;;;0.40;;
17259;SDS011;8746;49.230;9.220;2022-09-09T03:28:29;0.50;;;0.50;;
17259;SDS011;8746;49.230;9.220;2022-09-09T03:31:01;1.27;;;0.60;;
17259;SDS011;8746;49.230;9.220;2022-09-09T03:33:27;0.50;;;0.50;;
17259;SDS011;8746;49.230;9.220;2022-09-09T03:35:53;0.47;;;0.47;;
17259;SDS011;8746;49.230;9.220;2022-09-09T03:38:21;0.50;;;0.50;;
17259;SDS011;8746;49.230;9.220;2022-09-09T03:40:54;0.40;;;0.40;;
17259;SDS011;8746;49.230;9.220;2022-09-09T03:43:22;0.40;;;0.40;;
17259;SDS011;8746;49.230;9.220;2022-09-09T03:45:48;0.50;;;0.50;;
17259;SDS011;8746;49.230;9.220;2022-09-09T03:48:14;0.50;;;0.50;;
17259;SDS011;8746;49.230;9.220;2022-09-09T03:50:47;1.70;;;0.70;;
17259;SDS011;8746;49.230;9.220;2022-09-09T03:53:17;0.47;;;0.47;;
17259;SDS011;8746;49.230;9.220;2022-09-09T03:55:47;0.30;;;0.30;;
17259;SDS011;8746;49.230;9.220;2022-09-09T03:58:16;0.33;;;0.33;;
17259;SDS011;8746;49.230;9.220;2022-09-09T04:00:43;0.70;;;0.70;;
17259;SDS011;8746;49.230;9.220;2022-09-09T04:03:18;0.40;;;0.40;;
17259;SDS011;8746;49.230;9.220;2022-09-09T04:05:43;0.50;;;0.50;;
17259;SDS011;8746;49.230;9.220;2022-09-09T04:08:09;0.40;;;0.40;;
17259;SDS011;8746;49.230;9.220;2022-09-09T04:10:35;0.33;;;0.33;;
17259;SDS011;8746;49.230;9.220;2022-09-09T04:13:04;0.50;;;0.50;;
17259;SDS011;8746;49.230;9.220;2022-09-09T04:15:30;0.60;;;0.60;;
17259;SDS011;8746;49.230;9.220;2022-09-09T04:17:56;0.60;;;0.60;;
17259;SDS011;8746;49.230;9.220;2022-09-09T04:20:21;0.50;;;0.50;;
17259;SDS011;8746;49.230;9.220;2022-09-09T04:22:47;0.80;;;0.60;;
17259;SDS011;8746;49.230;9.220;2022-09-09T04:25:13;0.40;;;0.40;;
17259;SDS011;8746;49.230;9.220;2022-09-09T04:27:38;0.50;;;0.50;;
17259;SDS011;8746;49.230;9.220;2022-09-09T04:30:04;0.47;;;0.47;;
17259;SDS011;8746;49.230;9.220;2022-09-09T04:32:31;1.00;;;0.57;;
17259;SDS011;8746;49.230;9.220;2022-09-09T04:34:57;0.50;;;0.50;;
17259;SDS011;8746;49.230;9.220;2022-09-09T04:37:23;0.40;;;0.40;;
17259;SDS011;8746;49.230;9.220;2022-09-09T04:39:49;0.60;;;0.60;;
17259;SDS011;8746;49.230;9.220;2022-09-09T04:42:15;1.17;;;0.77;;
17259;SDS011;8746;49.230;9.220;2022-09-09T04:44:41;0.53;;;0.53;;
17259;SDS011;8746;49.230;9.220;2022-09-09T04:47:06;0.50;;;0.43;;
17259;SDS011;8746;49.230;9.220;2022-09-09T04:49:32;0.57;;;0.57;;
17259;SDS011;8746;49.230;9.220;2022-09-09T04:51:57;0.50;;;0.50;;
17259;SDS011;8746;49.230;9.220;2022-09-09T04:54:22;0.50;;;0.50;;
17259;SDS011;8746;49.230;9.220;2022-09-09T04:56:49;0.67;;;0.67;;
17259;SDS011;8746;49.230;9.220;2022-09-09T04:59:15;1.57;;;0.47;;
17259;SDS011;8746;49.230;9.220;2022-09-09T05:01:41;0.60;;;0.60;;
17259;SDS011;8746;49.230;9.220;2022-09-09T05:04:06;0.40;;;0.40;;
17259;SDS011;8746;49.230;9.220;2022-09-09T05:06:32;0.60;;;0.60;;
17259;SDS011;8746;49.230;9.220;2022-09-09T05:08:57;0.43;;;0.43;;
17259;SDS011;8746;49.230;9.220;2022-09-09T05:11:27;0.40;;;0.40;;
17259;SDS011;8746;49.230;9.220;2022-09-09T05:13:54;0.40;;;0.40;;
17259;SDS011;8746;49.230;9.220;2022-09-09T05:16:20;0.60;;;0.60;;
17259;SDS011;8746;49.230;9.220;2022-09-09T05:18:46;0.80;;;0.80;;
17259;SDS011;8746;49.230;9.220;2022-09-09T05:21:12;0.63;;;0.63;;
17259;SDS011;8746;49.230;9.220;2022-09-09T05:23:39;0.50;;;0.50;;
17259;SDS011;8746;49.230;9.220;2022-09-09T05:26:05;0.60;;;0.60;;
17259;SDS011;8746;49.230;9.220;2022-09-09T05:28:33;0.50;;;0.50;;
17259;SDS011;8746;49.230;9.220;2022-09-09T05:31:01;0.50;;;0.50;;
17259;SDS011;8746;49.230;9.220;2022-09-09T05:33:33;0.43;;;0.43;;
17259;SDS011;8746;49.230;9.220;2022-09-09T05:36:00;0.57;;;0.50;;
17259;SDS011;8746;49.230;9.220;2022-09-09T05:38:29;0.40;;;0.40;;
17259;SDS011;8746;49.230;9.220;2022-09-09T05:40:56;0.30;;;0.30;;
17259;SDS011;8746;49.230;9.220;2022-09-09T05:43:22;0.40;;;0.40;;
17259;SDS011;8746;49.230;9.220;2022-09-09T05:45:48;0.57;;;0.57;;
17259;SDS011;8746;49.230;9.220;2022-09-09T05:48:27;0.40;;;0.40;;
17259;SDS011;8746;49.230;9.220;2022-09-09T05:50:54;0.60;;;0.60;;
17259;SDS011;8746;49.230;9.220;2022-09-09T05:53:20;0.70;;;0.70;;
17259;SDS011;8746;49.230;9.220;2022-09-09T05:55:45;0.50;;;0.50;;
17259;SDS011;8746;49.230;9.220;2022-09-09T05:58:11;0.40;;;0.40;;
17259;SDS011;8746;49.230;9.220;2022-09-09T06:00:36;0.67;;;0.67;;
17259;SDS011;8746;49.230;9.220;2022-09-09T06:03:03;0.50;;;0.50;;
17259;SDS011;8746;49.230;9.220;2022-09-09T06:05:28;1.90;;;0.70;;
17259;SDS011;8746;49.230;9.220;2022-09-09T06:07:54;0.50;;;0.50;;
17259;SDS011;8746;49.230;9.220;2022-09-09T06:10:20;0.43;;;0.40;;
17259;SDS011;8746;49.230;9.220;2022-09-09T06:12:45;0.67;;;0.60;;
17259;SDS011;8746;49.230;9.220;2022-09-09T06:15:10;0.50;;;0.50;;
17259;SDS011;8746;49.230;9.220;2022-09-09T06:17:36;0.40;;;0.40;;
17259;SDS011;8746;49.230;9.220;2022-09-09T06:20:01;0.60;;;0.60;;
17259;SDS011;8746;49.230;9.220;2022-09-09T06:22:27;0.50;;;0.50;;
17259;SDS011;8746;49.230;9.220;2022-09-09T06:24:53;0.33;;;0.33;;
17259;SDS011;8746;49.230;9.220;2022-09-09T06:27:18;0.73;;;0.37;;
17259;SDS011;8746;49.230;9.220;2022-09-09T06:29:43;0.30;;;0.30;;
17259;SDS011;8746;49.230;9.220;2022-09-09T06:32:09;0.40;;;0.40;;
17259;SDS011;8746;49.230;9.220;2022-09-09T06:34:34;0.50;;;0.50;;
17259;SDS011;8746;49.230;9.220;2022-09-09T06:37:01;0.30;;;0.30;;
17259;SDS011;8746;49.230;9.220;2022-09-09T06:39:26;0.53;;;0.53;;
17259;SDS011;8746;49.230;9.220;2022-09-09T06:41:52;0.40;;;0.40;;
17259;SDS011;8746;49.230;9.220;2022-09-09T06:44:18;0.33;;;0.33;;
17259;SDS011;8746;49.230;9.220;2022-09-09T06:46:44;0.37;;;0.37;;
17259;SDS011;8746;49.230;9.220;2022-09-09T06:49:11;0.30;;;0.30;;
17259;SDS011;8746;49.230;9.220;2022-09-09T06:51:38;0.37;;;0.37;;
17259;SDS011;8746;49.230;9.220;2022-09-09T06:54:07;0.40;;;0.40;;
17259;SDS011;8746;49.230;9.220;2022-09-09T06:56:34;0.20;;;0.20;;
17259;SDS011;8746;49.230;9.220;2022-09-09T06:59:03;0.30;;;0.30;;
17259;SDS011;8746;49.230;9.220;2022-09-09T07:01:40;0.63;;;0.37;;
17259;SDS011;8746;49.230;9.220;2022-09-09T07:04:07;0.27;;;0.27;;
17259;SDS011;8746;49.230;9.220;2022-09-09T07:06:37;0.27;;;0.27;;
17259;SDS011;8746;49.230;9.220;2022-09-09T07:09:09;0.20;;;0.20;;
17259;SDS011;8746;49.230;9.220;2022-09-09T07:11:43;0.47;;;0.30;;
17259;SDS011;8746;49.230;9.220;2022-09-09T07:14:10;0.20;;;0.20;;
17259;SDS011;8746;49.230;9.220;2022-09-09T07:16:39;0.30;;;0.30;;
17259;SDS011;8746;49.230;9.220;2022-09-09T07:19:05;0.20;;;0.20;;
17259;SDS011;8746;49.230;9.220;2022-09-09T07:21:31;0.30;;;0.30;;
17259;SDS011;8746;49.230;9.220;2022-09-09T07:23:57;0.20;;;0.20;;
17259;SDS011;8746;49.230;9.220;2022-09-09T07:26:24;0.20;;;0.20;;
17259;SDS011;8746;49.230;9.220;2022-09-09T07:28:51;0.17;;;0.17;;
17259;SDS011;8746;49.230;9.220;2022-09-09T07:31:20;0.30;;;0.30;;
17259;SDS011;8746;49.230;9.220;2022-09-09T07:33:47;0.30;;;0.20;;
17259;SDS011;8746;49.230;9.220;2022-09-09T07:38:51;0.20;;;0.20;;
17259;SDS011;8746;49.230;9.220;2022-09-09T07:41:22;0.10;;;0.10;;
17259;SDS011;8746;49.230;9.220;2022-09-09T07:43:59;0.13;;;0.13;;
17259;SDS011;8746;49.230;9.220;2022-09-09T07:46:28;0.10;;;0.10;;
17259;SDS011;8746;49.230;9.220;2022-09-09T07:48:54;0.30;;;0.30;;
17259;SDS011;8746;49.230;9.220;2022-09-09T07:51:25;1.10;;;0.23;;
17259;SDS011;8746;49.230;9.220;2022-09-09T07:53:54;0.20;;;0.20;;
17259;SDS011;8746;49.230;9.220;2022-09-09T07:56:22;0.17;;;0.17;;
17259;SDS011;8746;49.230;9.220;2022-09-09T07:58:49;0.10;;;0.10;;
17259;SDS011;8746;49.230;9.220;2022-09-09T08:01:20;0.20;;;0.20;;
17259;SDS011;8746;49.230;9.220;2022-09-09T08:03:57;0.20;;;0.20;;
17259;SDS011;8746;49.230;9.220;2022-09-09T08:06:24;0.20;;;0.17;;
17259;SDS011;8746;49.230;9.220;2022-09-09T08:08:51;0.23;;;0.23;;
17259;SDS011;8746;49.230;9.220;2022-09-09T08:11:17;0.20;;;0.20;;
17259;SDS011;8746;49.230;9.220;2022-09-09T08:13:44;0.22;;;0.22;;
17259;SDS011;8746;49.230;9.220;2022-09-09T08:16:19;0.25;;;0.25;;
17259;SDS011;8746;49.230;9.220;2022-09-09T08:18:47;0.20;;;0.20;;
17259;SDS011;8746;49.230;9.220;2022-09-09T08:21:17;0.15;;;0.15;;
17259;SDS011;8746;49.230;9.220;2022-09-09T08:23:45;0.20;;;0.20;;
17259;SDS011;8746;49.230;9.220;2022-09-09T08:26:12;2.65;;;0.30;;
17259;SDS011;8746;49.230;9.220;2022-09-09T08:28:42;0.40;;;0.30;;
17259;SDS011;8746;49.230;9.220;2022-09-09T08:31:12;0.20;;;0.20;;
17259;SDS011;8746;49.230;9.220;2022-09-09T08:33:40;0.30;;;0.30;;
17259;SDS011;8746;49.230;9.220;2022-09-09T08:36:08;0.10;;;0.10;;
17259;SDS011;8746;49.230;9.220;2022-09-09T08:38:35;0.50;;;0.17;;
17259;SDS011;8746;49.230;9.220;2022-09-09T08:41:28;1.45;;;0.35;;
17259;SDS011;8746;49.230;9.220;2022-09-09T08:52:38;0.43;;;0.20;;
17259;SDS011;8746;49.230;9.220;2022-09-09T08:58:11;0.10;;;0.10;;
17259;SDS011;8746;49.230;9.220;2022-09-09T09:00:42;0.80;;;0.28;;
17259;SDS011;8746;49.230;9.220;2022-09-09T09:08:59;1.00;;;0.30;;
17259;SDS011;8746;49.230;9.220;2022-09-09T09:11:36;0.20;;;0.20;;
17259;SDS011;8746;49.230;9.220;2022-09-09T09:14:07;0.20;;;0.20;;
17259;SDS011;8746;49.230;9.220;2022-09-09T09:16:51;0.25;;;0.25;;
17259;SDS011;8746;49.230;9.220;2022-09-09T09:19:25;0.10;;;0.10;;
17259;SDS011;8746;49.230;9.220;2022-09-09T09:22:04;0.03;;;0.03;;
17259;SDS011;8746;49.230;9.220;2022-09-09T09:27:33;0.10;;;0.10;;
17259;SDS011;8746;49.230;9.220;2022-09-09T09:30:04;0.20;;;0.20;;
17259;SDS011;8746;49.230;9.220;2022-09-09T09:32:39;0.20;;;0.20;;
17259;SDS011;8746;49.230;9.220;2022-09-09T09:35:12;0.75;;;0.20;;
17259;SDS011;8746;49.230;9.220;2022-09-09T09:37:39;0.10;;;0.10;;
17259;SDS011;8746;49.230;9.220;2022-09-09T09:40:10;0.20;;;0.20;;
17259;SDS011;8746;49.230;9.220;2022-09-09T09:42:35;0.10;;;0.10;;
17259;SDS011;8746;49.230;9.220;2022-09-09T09:45:14;0.20;;;0.20;;
17259;SDS011;8746;49.230;9.220;2022-09-09T09:47:45;0.20;;;0.20;;
17259;SDS011;8746;49.230;9.220;2022-09-09T09:50:18;0.10;;;0.10;;
17259;SDS011;8746;49.230;9.220;2022-09-09T09:52:53;0.10;;;0.10;;
17259;SDS011;8746;49.230;9.220;2022-09-09T09:55:20;0.10;;;0.10;;
17259;SDS011;8746;49.230;9.220;2022-09-09T09:57:47;0.13;;;0.13;;
17259;SDS011;8746;49.230;9.220;2022-09-09T10:02:40;0.17;;;0.17;;
17259;SDS011;8746;49.230;9.220;2022-09-09T10:05:21;0.10;;;0.10;;
17259;SDS011;8746;49.230;9.220;2022-09-09T10:08:03;0.10;;;0.10;;
17259;SDS011;8746;49.230;9.220;2022-09-09T10:10:42;0.45;;;0.20;;
17259;SDS011;8746;49.230;9.220;2022-09-09T10:13:35;0.22;;;0.20;;
17259;SDS011;8746;49.230;9.220;2022-09-09T10:29:40;0.08;;;0.08;;
17259;SDS011;8746;49.230;9.220;2022-09-09T10:32:36;0.20;;;0.20;;
17259;SDS011;8746;49.230;9.220;2022-09-09T10:38:01;0.10;;;0.10;;
17259;SDS011;8746;49.230;9.220;2022-09-09T10:46:23;0.10;;;0.10;;
17259;SDS011;8746;49.230;9.220;2022-09-09T10:51:28;0.10;;;0.10;;
17259;SDS011;8746;49.230;9.220;2022-09-09T10:56:43;0.10;;;0.10;;
17259;SDS011;8746;49.230;9.220;2022-09-09T10:59:14;0.10;;;0.10;;
17259;SDS011;8746;49.230;9.220;2022-09-09T11:04:16;0.30;;;0.10;;
17259;SDS011;8746;49.230;9.220;2022-09-09T11:06:48;0.10;;;0.10;;
17259;SDS011;8746;49.230;9.220;2022-09-09T11:09:19;0.00;;;0.00;;
17259;SDS011;8746;49.230;9.220;2022-09-09T11:11:55;0.10;;;0.10;;
17259;SDS011;8746;49.230;9.220;2022-09-09T11:14:26;0.30;;;0.08;;
17259;SDS011;8746;49.230;9.220;2022-09-09T11:17:06;0.10;;;0.10;;
17259;SDS011;8746;49.230;9.220;2022-09-09T11:19:41;0.10;;;0.10;;
17259;SDS011;8746;49.230;9.220;2022-09-09T11:25:06;0.10;;;0.10;;
17259;SDS011;8746;49.230;9.220;2022-09-09T11:27:54;0.10;;;0.10;;
17259;SDS011;8746;49.230;9.220;2022-09-09T11:38:46;1.75;;;0.20;;
17259;SDS011;8746;49.230;9.220;2022-09-09T11:41:16;0.10;;;0.10;;
17259;SDS011;8746;49.230;9.220;2022-09-09T11:44:08;0.80;;;0.20;;
17259;SDS011;8746;49.230;9.220;2022-09-09T11:46:36;0.13;;;0.13;;
17259;SDS011;8746;49.230;9.220;2022-09-09T11:49:05;0.20;;;0.17;;
17259;SDS011;8746;49.230;9.220;2022-09-09T11:51:48;0.10;;;0.10;;
17259;SDS011;8746;49.230;9.220;2022-09-09T11:54:26;0.20;;;0.20;;
17259;SDS011;8746;49.230;9.220;2022-09-09T11:56:54;0.17;;;0.17;;
17259;SDS011;8746;49.230;9.220;2022-09-09T11:59:24;1.02;;;0.20;;
17259;SDS011;8746;49.230;9.220;2022-09-09T12:02:02;0.13;;;0.13;;
17259;SDS011;8746;49.230;9.220;2022-09-09T12:04:28;0.10;;;0.10;;
17259;SDS011;8746;49.230;9.220;2022-09-09T12:12:23;0.15;;;0.15;;
17259;SDS011;8746;49.230;9.220;2022-09-09T12:17:52;0.60;;;0.13;;
17259;SDS011;8746;49.230;9.220;2022-09-09T12:20:32;0.35;;;0.20;;
17259;SDS011;8746;49.230;9.220;2022-09-09T12:23:15;0.20;;;0.20;;
17259;SDS011;8746;49.230;9.220;2022-09-09T12:31:11;0.65;;;0.10;;
17259;SDS011;8746;49.230;9.220;2022-09-09T12:33:43;0.10;;;0.10;;
17259;SDS011;8746;49.230;9.220;2022-09-09T12:36:17;0.00;;;0.00;;
17259;SDS011;8746;49.230;9.220;2022-09-09T12:38:45;0.10;;;0.10;;
17259;SDS011;8746;49.230;9.220;2022-09-09T12:41:23;0.20;;;0.20;;
17259;SDS011;8746;49.230;9.220;2022-09-09T12:43:50;0.13;;;0.13;;
17259;SDS011;8746;49.230;9.220;2022-09-09T12:46:31;0.20;;;0.20;;
17259;SDS011;8746;49.230;9.220;2022-09-09T12:52:00;0.17;;;0.17;;
17259;SDS011;8746;49.230;9.220;2022-09-09T12:54:28;0.00;;;0.00;;
17259;SDS011;8746;49.230;9.220;2022-09-09T12:56:54;0.20;;;0.20;;
17259;SDS011;8746;49.230;9.220;2022-09-09T12:59:26;0.10;;;0.10;;
17259;SDS011;8746;49.230;9.220;2022-09-09T13:02:00;0.13;;;0.13;;
17259;SDS011;8746;49.230;9.220;2022-09-09T13:04:26;0.10;;;0.10;;
17259;SDS011;8746;49.230;9.220;2022-09-09T13:06:51;0.15;;;0.10;;
17259;SDS011;8746;49.230;9.220;2022-09-09T13:09:17;0.10;;;0.10;;
17259;SDS011;8746;49.230;9.220;2022-09-09T13:11:44;0.00;;;0.00;;
17259;SDS011;8746;49.230;9.220;2022-09-09T13:14:31;0.10;;;0.10;;
17259;SDS011;8746;49.230;9.220;2022-09-09T13:17:02;0.10;;;0.10;;
17259;SDS011;8746;49.230;9.220;2022-09-09T13:19:34;0.15;;;0.15;;
17259;SDS011;8746;49.230;9.220;2022-09-09T13:22:14;0.10;;;0.10;;
17259;SDS011;8746;49.230;9.220;2022-09-09T13:24:58;0.20;;;0.20;;
17259;SDS011;8746;49.230;9.220;2022-09-09T13:27:35;0.10;;;0.10;;
17259;SDS011;8746;49.230;9.220;2022-09-09T13:35:52;0.20;;;0.20;;
17259;SDS011;8746;49.230;9.220;2022-09-09T13:38:20;1.45;;;0.20;;
17259;SDS011;8746;49.230;9.220;2022-09-09T13:40:56;0.43;;;0.30;;
17259;SDS011;8746;49.230;9.220;2022-09-09T13:43:24;0.03;;;0.03;;
17259;SDS011;8746;49.230;9.220;2022-09-09T13:46:34;0.38;;;0.30;;
17259;SDS011;8746;49.230;9.220;2022-09-09T13:48:56;0.10;;;0.10;;
17259;SDS011;8746;49.230;9.220;2022-09-09T13:51:30;0.85;;;0.20;;
17259;SDS011;8746;49.230;9.220;2022-09-09T13:54:00;0.80;;;0.30;;
17259;SDS011;8746;49.230;9.220;2022-09-09T13:56:25;0.17;;;0.17;;
17259;SDS011;8746;49.230;9.220;2022-09-09T13:58:51;0.25;;;0.25;;
17259;SDS011;8746;49.230;9.220;2022-09-09T14:01:16;0.15;;;0.15;;
17259;SDS011;8746;49.230;9.220;2022-09-09T14:03:41;0.20;;;0.20;;
17259;SDS011;8746;49.230;9.220;2022-09-09T14:06:08;0.08;;;0.08;;
17259;SDS011;8746;49.230;9.220;2022-09-09T14:08:35;0.20;;;0.10;;
17259;SDS011;8746;49.230;9.220;2022-09-09T14:11:02;0.17;;;0.13;;
17259;SDS011;8746;49.230;9.220;2022-09-09T14:13:28;0.10;;;0.10;;
17259;SDS011;8746;49.230;9.220;2022-09-09T14:15:54;0.10;;;0.10;;
17259;SDS011;8746;49.230;9.220;2022-09-09T14:18:19;0.20;;;0.20;;
17259;SDS011;8746;49.230;9.220;2022-09-09T14:20:45;0.28;;;0.28;;
17259;SDS011;8746;49.230;9.220;2022-09-09T14:23:11;0.10;;;0.10;;
17259;SDS011;8746;49.230;9.220;2022-09-09T14:25:39;0.20;;;0.20;;
17259;SDS011;8746;49.230;9.220;2022-09-09T14:28:14;0.15;;;0.15;;
17259;SDS011;8746;49.230;9.220;2022-09-09T14:30:40;0.10;;;0.10;;
17259;SDS011;8746;49.230;9.220;2022-09-09T14:33:07;0.10;;;0.10;;
17259;SDS011;8746;49.230;9.220;2022-09-09T14:35:34;0.10;;;0.10;;
17259;SDS011;8746;49.230;9.220;2022-09-09T14:38:01;0.10;;;0.10;;
17259;SDS011;8746;49.230;9.220;2022-09-09T14:40:28;0.20;;;0.20;;
17259;SDS011;8746;49.230;9.220;2022-09-09T14:42:53;0.00;;;0.00;;
17259;SDS011;8746;49.230;9.220;2022-09-09T14:45:19;0.10;;;0.10;;
17259;SDS011;8746;49.230;9.220;2022-09-09T14:47:46;0.10;;;0.10;;
17259;SDS011;8746;49.230;9.220;2022-09-09T14:50:11;0.10;;;0.10;;
17259;SDS011;8746;49.230;9.220;2022-09-09T14:52:37;0.10;;;0.10;;
17259;SDS011;8746;49.230;9.220;2022-09-09T14:55:03;0.20;;;0.20;;
17259;SDS011;8746;49.230;9.220;2022-09-09T14:57:29;0.10;;;0.10;;
17259;SDS011;8746;49.230;9.220;2022-09-09T14:59:55;0.10;;;0.10;;
17259;SDS011;8746;49.230;9.220;2022-09-09T15:02:21;0.13;;;0.13;;
17259;SDS011;8746;49.230;9.220;2022-09-09T15:04:47;0.10;;;0.10;;
17259;SDS011;8746;49.230;9.220;2022-09-09T15:07:14;0.08;;;0.08;;
17259;SDS011;8746;49.230;9.220;2022-09-09T15:09:41;0.10;;;0.10;;
17259;SDS011;8746;49.230;9.220;2022-09-09T15:12:07;0.10;;;0.10;;
17259;SDS011;8746;49.230;9.220;2022-09-09T15:14:32;0.20;;;0.20;;
17259;SDS011;8746;49.230;9.220;2022-09-09T15:16:57;0.10;;;0.10;;
17259;SDS011;8746;49.230;9.220;2022-09-09T15:19:23;0.20;;;0.20;;
17259;SDS011;8746;49.230;9.220;2022-09-09T15:21:48;0.10;;;0.10;;
17259;SDS011;8746;49.230;9.220;2022-09-09T15:24:14;0.10;;;0.10;;
17259;SDS011;8746;49.230;9.220;2022-09-09T15:26:40;0.20;;;0.20;;
17259;SDS011;8746;49.230;9.220;2022-09-09T15:29:06;0.10;;;0.10;;
17259;SDS011;8746;49.230;9.220;2022-09-09T15:31:33;0.10;;;0.10;;
17259;SDS011;8746;49.230;9.220;2022-09-09T15:33:59;0.10;;;0.10;;
17259;SDS011;8746;49.230;9.220;2022-09-09T15:38:56;0.35;;;0.22;;
17259;SDS011;8746;49.230;9.220;2022-09-09T15:41:23;0.10;;;0.10;;
17259;SDS011;8746;49.230;9.220;2022-09-09T15:43:49;0.10;;;0.10;;
17259;SDS011;8746;49.230;9.220;2022-09-09T15:48:42;1.02;;;0.20;;
17259;SDS011;8746;49.230;9.220;2022-09-09T15:51:09;0.10;;;0.10;;
17259;SDS011;8746;49.230;9.220;2022-09-09T15:53:35;0.20;;;0.20;;
17259;SDS011;8746;49.230;9.220;2022-09-09T15:56:02;0.10;;;0.10;;
17259;SDS011;8746;49.230;9.220;2022-09-09T15:58:29;0.28;;;0.28;;
17259;SDS011;8746;49.230;9.220;2022-09-09T16:01:01;0.20;;;0.20;;
17259;SDS011;8746;49.230;9.220;2022-09-09T16:03:36;0.10;;;0.10;;
17259;SDS011;8746;49.230;9.220;2022-09-09T16:06:04;0.10;;;0.10;;
17259;SDS011;8746;49.230;9.220;2022-09-09T16:08:33;0.20;;;0.20;;
17259;SDS011;8746;49.230;9.220;2022-09-09T16:11:11;0.20;;;0.20;;
17259;SDS011;8746;49.230;9.220;2022-09-09T16:13:40;0.10;;;0.10;;
17259;SDS011;8746;49.230;9.220;2022-09-09T16:16:06;0.20;;;0.20;;
17259;SDS011;8746;49.230;9.220;2022-09-09T16:21:01;0.20;;;0.20;;
17259;SDS011;8746;49.230;9.220;2022-09-09T16:23:28;0.20;;;0.20;;
17259;SDS011;8746;49.230;9.220;2022-09-09T16:25:54;0.37;;;0.30;;
17259;SDS011;8746;49.230;9.220;2022-09-09T16:28:20;0.20;;;0.20;;
17259;SDS011;8746;49.230;9.220;2022-09-09T16:30:45;0.20;;;0.20;;
17259;SDS011;8746;49.230;9.220;2022-09-09T16:33:11;0.10;;;0.10;;
17259;SDS011;8746;49.230;9.220;2022-09-09T16:35:36;0.17;;;0.17;;
17259;SDS011;8746;49.230;9.220;2022-09-09T16:38:03;0.20;;;0.20;;
17259;SDS011;8746;49.230;9.220;2022-09-09T16:40:29;0.30;;;0.30;;
17259;SDS011;8746;49.230;9.220;2022-09-09T16:42:55;0.23;;;0.23;;
17259;SDS011;8746;49.230;9.220;2022-09-09T16:45:20;0.17;;;0.17;;
17259;SDS011;8746;49.230;9.220;2022-09-09T16:47:46;0.30;;;0.20;;
17259;SDS011;8746;49.230;9.220;2022-09-09T16:50:13;0.23;;;0.23;;
17259;SDS011;8746;49.230;9.220;2022-09-09T16:52:39;0.10;;;0.10;;
17259;SDS011;8746;49.230;9.220;2022-09-09T16:55:04;0.23;;;0.23;;
17259;SDS011;8746;49.230;9.220;2022-09-09T16:57:30;0.13;;;0.13;;
17259;SDS011;8746;49.230;9.220;2022-09-09T16:59:55;0.30;;;0.30;;
17259;SDS011;8746;49.230;9.220;2022-09-09T17:02:24;0.10;;;0.10;;
17259;SDS011;8746;49.230;9.220;2022-09-09T17:04:49;0.17;;;0.17;;
17259;SDS011;8746;49.230;9.220;2022-09-09T17:07:15;0.10;;;0.10;;
17259;SDS011;8746;49.230;9.220;2022-09-09T17:09:41;0.10;;;0.10;;
17259;SDS011;8746;49.230;9.220;2022-09-09T17:12:07;0.23;;;0.23;;
17259;SDS011;8746;49.230;9.220;2022-09-09T17:14:33;0.10;;;0.10;;
17259;SDS011;8746;49.230;9.220;2022-09-09T17:16:58;0.10;;;0.10;;
17259;SDS011;8746;49.230;9.220;2022-09-09T17:19:25;0.10;;;0.10;;
17259;SDS011;8746;49.230;9.220;2022-09-09T17:21:51;0.10;;;0.10;;
17259;SDS011;8746;49.230;9.220;2022-09-09T17:24:17;0.20;;;0.20;;
17259;SDS011;8746;49.230;9.220;2022-09-09T17:26:42;0.17;;;0.17;;
17259;SDS011;8746;49.230;9.220;2022-09-09T17:29:09;0.17;;;0.17;;
17259;SDS011;8746;49.230;9.220;2022-09-09T17:31:36;0.10;;;0.10;;
17259;SDS011;8746;49.230;9.220;2022-09-09T17:34:01;0.10;;;0.10;;
17259;SDS011;8746;49.230;9.220;2022-09-09T17:36:30;0.17;;;0.17;;
17259;SDS011;8746;49.230;9.220;2022-09-09T17:38:58;0.10;;;0.10;;
17259;SDS011;8746;49.230;9.220;2022-09-09T17:41:27;0.10;;;0.10;;
17259;SDS011;8746;49.230;9.220;2022-09-09T17:43:54;0.10;;;0.10;;
17259;SDS011;8746;49.230;9.220;2022-09-09T17:46:23;0.13;;;0.13;;
17259;SDS011;8746;49.230;9.220;2022-09-09T17:48:49;0.10;;;0.10;;